• Join FlightAware (Why Join?)
  • Login
  • US Flag 
08:22AM EST


 

Airport Tracker/Info


-or-


 

Live Flight TrackerFlight Track Log ✈ QTR802 ✈ 29-Apr-2012 ✈ OTBD - RJBB / KIX

Flight Track Log - Related Links

Times and Time Zones

All times are in EDT time to prevent confusion due to time zone crossing. See the QTR802 flight status page for this flight to view local times or setup timezone preferences in your user account.

Time Position Orientation Groundspeed Altitude Reporting Facility
EDT Latitude Longitude Course Direction KTS MPH feet Rate Location/Type
06:51PM 25.4796 51.9861 60° Northeast  Level Estimated
06:52PM 25.5466 52.1159 60° Northeast  Level Estimated
06:53PM 25.6134 52.2459 60° Northeast  Level Estimated
06:54PM 25.6802 52.3760 60° Northeast  Level Estimated
06:55PM 25.7468 52.5063 60° Northeast  Level Estimated
06:56PM 25.8133 52.6367 61° Northeast  Level Estimated
06:57PM 25.8797 52.7673 61° Northeast  Level Estimated
06:58PM 25.9460 52.8980 61° Northeast  Level Estimated
06:59PM 26.0122 53.0289 61° Northeast  Level Estimated
07:00PM 26.0782 53.1599 61° Northeast  Level Estimated
07:01PM 26.1442 53.2911 61° Northeast  Level Estimated
07:02PM 26.2100 53.4224 61° Northeast  Level Estimated
07:03PM 26.2757 53.5539 61° Northeast  Level Estimated
07:04PM 26.3412 53.6855 61° Northeast  Level Estimated
07:05PM 26.4067 53.8172 61° Northeast  Level Estimated
07:06PM 26.4720 53.9492 61° Northeast  Level Estimated
07:07PM 26.5372 54.0812 61° Northeast  Level Estimated
07:08PM 26.6023 54.2134 61° Northeast  Level Estimated
07:09PM 26.6673 54.3458 61° Northeast  Level Estimated
07:10PM 26.7321 54.4783 61° Northeast  Level Estimated
07:11PM 26.7968 54.6110 61° Northeast  Level Estimated
07:12PM 26.8614 54.7438 61° Northeast  Level Estimated
07:13PM 26.9259 54.8767 61° Northeast  Level Estimated
07:14PM 26.9902 55.0098 62° Northeast  Level Estimated
07:15PM 27.0545 55.1431 62° Northeast  Level Estimated
07:16PM 27.1186 55.2765 62° Northeast  Level Estimated
07:17PM 27.1825 55.4101 62° Northeast  Level Estimated
07:18PM 27.2464 55.5438 62° Northeast  Level Estimated
07:19PM 27.3101 55.6777 62° Northeast  Level Estimated
07:20PM 27.3737 55.8117 62° Northeast  Level Estimated
07:21PM 27.4371 55.9459 62° Northeast  Level Estimated
07:22PM 27.5005 56.0803 62° Northeast  Level Estimated
07:23PM 27.5637 56.2148 62° Northeast  Level Estimated
07:24PM 27.6267 56.3494 62° Northeast  Level Estimated
07:25PM 27.6897 56.4842 62° Northeast  Level Estimated
07:26PM 27.7525 56.6192 62° Northeast  Level Estimated
07:27PM 27.8152 56.7543 62° Northeast  Level Estimated
07:28PM 27.8777 56.8896 62° Northeast  Level Estimated
07:29PM 27.9401 57.0250 62° Northeast  Level Estimated
07:30PM 28.0024 57.1606 63° Northeast  Level Estimated
07:31PM 28.0646 57.2963 63° Northeast  Level Estimated
07:32PM 28.1266 57.4322 63° Northeast  Level Estimated
07:33PM 28.1885 57.5683 63° Northeast  Level Estimated
07:34PM 28.2502 57.7045 63° Northeast  Level Estimated
07:35PM 28.3118 57.8408 63° Northeast  Level Estimated
07:36PM 28.3733 57.9774 63° Northeast  Level Estimated
07:37PM 28.4346 58.1141 63° Northeast  Level Estimated
07:38PM 28.4958 58.2509 63° Northeast  Level Estimated
07:39PM 28.5569 58.3879 63° Northeast  Level Estimated
07:40PM 28.6178 58.5251 63° Northeast  Level Estimated
07:41PM 28.6786 58.6624 63° Northeast  Level Estimated
07:42PM 28.7393 58.7999 63° Northeast  Level Estimated
07:43PM 28.7998 58.9375 63° Northeast  Level Estimated
07:44PM 28.8602 59.0753 63° Northeast  Level Estimated
07:45PM 28.9204 59.2133 64° Northeast  Level Estimated
07:46PM 28.9805 59.3514 64° Northeast  Level Estimated
07:47PM 29.0404 59.4897 64° Northeast  Level Estimated
07:48PM 29.1002 59.6281 64° Northeast  Level Estimated
07:49PM 29.1599 59.7667 64° Northeast  Level Estimated
07:50PM 29.2194 59.9055 64° Northeast  Level Estimated
07:51PM 29.2788 60.0444 64° Northeast  Level Estimated
07:52PM 29.3381 60.1835 64° Northeast  Level Estimated
07:53PM 29.3971 60.3227 64° Northeast  Level Estimated
07:54PM 29.4561 60.4621 64° Northeast  Level Estimated
07:55PM 29.5149 60.6017 64° Northeast  Level Estimated
07:56PM 29.5735 60.7414 64° Northeast  Level Estimated
07:57PM 29.6321 60.8813 64° Northeast  Level Estimated
07:58PM 29.6904 61.0214 64° Northeast  Level Estimated
07:59PM 29.7486 61.1616 64° Northeast  Level Estimated
08:00PM 29.8067 61.3020 65° Northeast  Level Estimated
08:01PM 29.8646 61.4425 65° Northeast  Level Estimated
08:02PM 29.9224 61.5832 65° Northeast  Level Estimated
08:03PM 29.9800 61.7241 65° Northeast  Level Estimated
08:04PM 30.0375 61.8651 65° Northeast  Level Estimated
08:05PM 30.0948 62.0063 65° Northeast  Level Estimated
08:06PM 30.1520 62.1477 65° Northeast  Level Estimated
08:07PM 30.2090 62.2892 65° Northeast  Level Estimated
08:08PM 30.2659 62.4309 65° Northeast  Level Estimated
08:09PM 30.3226 62.5728 65° Northeast  Level Estimated
08:10PM 30.3791 62.7148 65° Northeast  Level Estimated
08:11PM 30.4355 62.8570 65° Northeast  Level Estimated
08:12PM 30.4918 62.9993 65° Northeast  Level Estimated
08:13PM 30.5479 63.1418 65° Northeast  Level Estimated
08:14PM 30.6038 63.2845 66° East  Level Estimated
08:15PM 30.6596 63.4273 66° East  Level Estimated
08:16PM 30.7152 63.5703 66° East  Level Estimated
08:17PM 30.7707 63.7135 66° East  Level Estimated
08:18PM 30.8260 63.8568 66° East  Level Estimated
08:19PM 30.8811 64.0003 66° East  Level Estimated
08:20PM 30.9361 64.1440 66° East  Level Estimated
08:21PM 30.9910 64.2878 66° East  Level Estimated
08:22PM 31.0457 64.4318 66° East  Level Estimated
08:23PM 31.1002 64.5760 66° East  Level Estimated
08:24PM 31.1546 64.7203 66° East  Level Estimated
08:25PM 31.2087 64.8648 66° East  Level Estimated
08:26PM 31.2628 65.0095 66° East  Level Estimated
08:27PM 31.3167 65.1543 67° East  Level Estimated
08:28PM 31.3704 65.2993 67° East  Level Estimated
08:29PM 31.4239 65.4444 67° East  Level Estimated
08:30PM 31.4773 65.5897 67° East  Level Estimated
08:31PM 31.5305 65.7352 67° East  Level Estimated
08:32PM 31.5836 65.8809 67° East  Level Estimated
08:33PM 31.6364 66.0267 67° East  Level Estimated
08:34PM 31.6892 66.1727 67° East  Level Estimated
08:35PM 31.7417 66.3188 67° East  Level Estimated
08:36PM 31.7941 66.4651 67° East  Level Estimated
08:37PM 31.8463 66.6116 67° East  Level Estimated
08:38PM 31.8984 66.7582 67° East  Level Estimated
08:39PM 31.9503 66.9051 67° East  Level Estimated
08:40PM 32.0020 67.0520 68° East  Level Estimated
08:41PM 32.0535 67.1992 68° East  Level Estimated
08:42PM 32.1049 67.3465 68° East  Level Estimated
08:43PM 32.1561 67.4940 68° East  Level Estimated
08:44PM 32.2071 67.6416 68° East  Level Estimated
08:45PM 32.2580 67.7894 68° East  Level Estimated
08:46PM 32.3087 67.9374 68° East  Level Estimated
08:47PM 32.3592 68.0855 68° East  Level Estimated
08:48PM 32.4096 68.2338 68° East  Level Estimated
08:49PM 32.4597 68.3823 68° East  Level Estimated
08:50PM 32.5097 68.5309 68° East  Level Estimated
08:51PM 32.5595 68.6797 68° East  Level Estimated
08:52PM 32.6092 68.8287 68° East  Level Estimated
08:53PM 32.6586 68.9778 69° East  Level Estimated
08:54PM 32.7079 69.1271 69° East  Level Estimated
08:55PM 32.7570 69.2765 69° East  Level Estimated
08:56PM 32.8060 69.4261 69° East  Level Estimated
08:57PM 32.8548 69.5759 69° East  Level Estimated
08:58PM 32.9033 69.7259 69° East  Level Estimated
08:59PM 32.9517 69.8760 69° East  Level Estimated
09:00PM 33.0000 70.0263 69° East  Level Estimated
09:01PM 33.0480 70.1767 69° East  Level Estimated
09:02PM 33.0959 70.3273 69° East  Level Estimated
09:03PM 33.1435 70.4781 69° East  Level Estimated
09:04PM 33.1910 70.6290 69° East  Level Estimated
09:05PM 33.2383 70.7801 70° East  Level Estimated
09:06PM 33.2855 70.9314 70° East  Level Estimated
09:07PM 33.3324 71.0828 70° East  Level Estimated
09:08PM 33.3792 71.2344 70° East  Level Estimated
09:09PM 33.4258 71.3861 70° East  Level Estimated
09:10PM 33.4722 71.5380 70° East  Level Estimated
09:11PM 33.5184 71.6901 70° East  Level Estimated
09:12PM 33.5644 71.8423 70° East  Level Estimated
09:13PM 33.6102 71.9947 70° East  Level Estimated
09:14PM 33.6559 72.1473 70° East  Level Estimated
09:15PM 33.7014 72.3000 70° East  Level Estimated
09:16PM 33.7466 72.4529 70° East  Level Estimated
09:17PM 33.7917 72.6059 71° East  Level Estimated
09:18PM 33.8366 72.7591 71° East  Level Estimated
09:19PM 33.8813 72.9125 71° East  Level Estimated
09:20PM 33.9258 73.0660 71° East  Level Estimated
09:21PM 33.9702 73.2197 71° East  Level Estimated
09:22PM 34.0143 73.3735 71° East  Level Estimated
09:23PM 34.0583 73.5275 71° East  Level Estimated
09:24PM 34.1020 73.6817 71° East  Level Estimated
09:25PM 34.1456 73.8360 71° East  Level Estimated
09:26PM 34.1889 73.9905 71° East  Level Estimated
09:27PM 34.2321 74.1451 71° East  Level Estimated
09:28PM 34.2751 74.2999 71° East  Level Estimated
09:29PM 34.3179 74.4549 72° East  Level Estimated
09:30PM 34.3605 74.6100 72° East  Level Estimated
09:31PM 34.4028 74.7653 72° East  Level Estimated
09:32PM 34.4450 74.9207 72° East  Level Estimated
09:33PM 34.4870 75.0763 72° East  Level Estimated
09:34PM 34.5288 75.2321 72° East  Level Estimated
09:35PM 34.5704 75.3880 72° East  Level Estimated
09:36PM 34.6118 75.5440 72° East  Level Estimated
09:37PM 34.6530 75.7002 72° East  Level Estimated
09:38PM 34.6940 75.8566 72° East  Level Estimated
09:39PM 34.7349 76.0131 72° East  Level Estimated
09:40PM 34.7755 76.1698 73° East  Level Estimated
09:41PM 34.8159 76.3266 73° East  Level Estimated
09:42PM 34.8561 76.4836 73° East  Level Estimated
09:43PM 34.8961 76.6407 73° East  Level Estimated
09:44PM 34.9359 76.7980 73° East  Level Estimated
09:45PM 34.9755 76.9555 73° East  Level Estimated
09:46PM 35.0149 77.1131 73° East  Level Estimated
09:47PM 35.0541 77.2708 73° East  Level Estimated
09:48PM 35.0930 77.4287 73° East  Level Estimated
09:49PM 35.1318 77.5867 73° East  Level Estimated
09:50PM 35.1704 77.7449 73° East  Level Estimated
09:51PM 35.2088 77.9033 74° East  Level Estimated
09:52PM 35.2469 78.0618 74° East  Level Estimated
09:53PM 35.2849 78.2204 74° East  Level Estimated
09:54PM 35.3226 78.3792 74° East  Level Estimated
09:55PM 35.3602 78.5381 74° East  Level Estimated
09:56PM 35.3975 78.6972 74° East  Level Estimated
09:57PM 35.4346 78.8565 74° East  Level Estimated
09:58PM 35.4715 79.0158 74° East  Level Estimated
09:59PM 35.5082 79.1754 74° East  Level Estimated
10:00PM 35.5447 79.3350 74° East  Level Estimated
10:01PM 35.5810 79.4949 74° East  Level Estimated
10:02PM 35.6171 79.6548 75° East  Level Estimated
10:03PM 35.6529 79.8149 75° East  Level Estimated
10:04PM 35.6886 79.9752 75° East  Level Estimated
10:05PM 35.7240 80.1356 75° East  Level Estimated
10:06PM 35.7593 80.2961 75° East  Level Estimated
10:07PM 35.7943 80.4568 75° East  Level Estimated
10:08PM 35.8290 80.6176 75° East  Level Estimated
10:09PM 35.8636 80.7785 75° East  Level Estimated
10:10PM 35.8980 80.9396 75° East  Level Estimated
10:11PM 35.9321 81.1009 75° East  Level Estimated
10:12PM 35.9661 81.2622 75° East  Level Estimated
10:13PM 35.9998 81.4238 76° East  Level Estimated
10:14PM 36.0333 81.5854 76° East  Level Estimated
10:15PM 36.0666 81.7472 76° East  Level Estimated
10:16PM 36.0997 81.9091 76° East  Level Estimated
10:17PM 36.1325 82.0712 76° East  Level Estimated
10:18PM 36.1651 82.2334 76° East  Level Estimated
10:19PM 36.1975 82.3957 76° East  Level Estimated
10:20PM 36.2297 82.5582 76° East  Level Estimated
10:21PM 36.2617 82.7208 76° East  Level Estimated
10:22PM 36.2934 82.8835 76° East  Level Estimated
10:23PM 36.3250 83.0464 77° East  Level Estimated
10:24PM 36.3563 83.2094 77° East  Level Estimated
10:25PM 36.3874 83.3725 77° East  Level Estimated
10:26PM 36.4183 83.5358 77° East  Level Estimated
10:27PM 36.4489 83.6991 77° East  Level Estimated
10:28PM 36.4793 83.8627 77° East  Level Estimated
10:29PM 36.5095 84.0263 77° East  Level Estimated
10:30PM 36.5395 84.1901 77° East  Level Estimated
10:31PM 36.5692 84.3540 77° East  Level Estimated
10:32PM 36.5988 84.5180 77° East  Level Estimated
10:33PM 36.6281 84.6821 78° East  Level Estimated
10:34PM 36.6572 84.8464 78° East  Level Estimated
10:35PM 36.6860 85.0108 78° East  Level Estimated
10:36PM 36.7146 85.1753 78° East  Level Estimated
10:37PM 36.7430 85.3400 78° East  Level Estimated
10:38PM 36.7712 85.5047 78° East  Level Estimated
10:39PM 36.7991 85.6696 78° East  Level Estimated
10:40PM 36.8269 85.8346 78° East  Level Estimated
10:41PM 36.8544 85.9997 78° East  Level Estimated
10:42PM 36.8816 86.1650 78° East  Level Estimated
10:43PM 36.9086 86.3303 78° East  Level Estimated
10:44PM 36.9354 86.4958 79° East  Level Estimated
10:45PM 36.9620 86.6614 79° East  Level Estimated
10:46PM 36.9883 86.8271 79° East  Level Estimated
10:47PM 37.0145 86.9929 79° East  Level Estimated
10:48PM 37.0403 87.1588 79° East  Level Estimated
10:49PM 37.0660 87.3249 79° East  Level Estimated
10:50PM 37.0914 87.4910 79° East  Level Estimated
10:51PM 37.1166 87.6573 79° East  Level Estimated
10:52PM 37.1415 87.8237 79° East  Level Estimated
10:53PM 37.1663 87.9902 79° East  Level Estimated
10:54PM 37.1908 88.1567 80° East  Level Estimated
10:55PM 37.2150 88.3234 80° East  Level Estimated
10:56PM 37.2390 88.4902 80° East  Level Estimated
10:57PM 37.2628 88.6572 80° East  Level Estimated
10:58PM 37.2864 88.8242 80° East  Level Estimated
10:59PM 37.3097 88.9913 80° East  Level Estimated
11:00PM 37.3328 89.1585 80° East  Level Estimated
11:01PM 37.3556 89.3259 80° East  Level Estimated
11:02PM 37.3782 89.4933 80° East  Level Estimated
11:03PM 37.4006 89.6608 81° East  Level Estimated
11:04PM 37.4227 89.8285 81° East  Level Estimated
11:05PM 37.4446 89.9962 81° East  Level Estimated
11:06PM 37.4663 90.1640 81° East  Level Estimated
11:07PM 37.4877 90.3319 81° East  Level Estimated
11:08PM 37.5089 90.4999 81° East  Level Estimated
11:09PM 37.5299 90.6681 81° East  Level Estimated
11:10PM 37.5506 90.8363 81° East  Level Estimated
11:11PM 37.5710 91.0046 81° East  Level Estimated
11:12PM 37.5913 91.1730 81° East  Level Estimated
11:13PM 37.6113 91.3414 82° East  Level Estimated
11:14PM 37.6310 91.5100 82° East  Level Estimated
11:15PM 37.6506 91.6787 82° East  Level Estimated
11:16PM 37.6698 91.8474 82° East  Level Estimated
11:17PM 37.6889 92.0163 82° East  Level Estimated
11:18PM 37.7076 92.1852 82° East  Level Estimated
11:19PM 37.7262 92.3542 82° East  Level Estimated
11:20PM 37.7445 92.5233 82° East  Level Estimated
11:21PM 37.7626 92.6925 82° East  Level Estimated
11:22PM 37.7804 92.8617 82° East  Level Estimated
11:23PM 37.7980 93.0311 83° East  Level Estimated
11:24PM 37.8153 93.2005 83° East  Level Estimated
11:25PM 37.8324 93.3700 83° East  Level Estimated
11:26PM 37.8493 93.5396 83° East  Level Estimated
11:27PM 37.8659 93.7092 83° East  Level Estimated
11:28PM 37.8823 93.8789 83° East  Level Estimated
11:29PM 37.8984 94.0487 83° East  Level Estimated
11:30PM 37.9143 94.2186 83° East  Level Estimated
11:31PM 37.9299 94.3886 83° East  Level Estimated
11:32PM 37.9453 94.5586 84° East  Level Estimated
11:33PM 37.9605 94.7287 84° East  Level Estimated
11:34PM 37.9754 94.8989 84° East  Level Estimated
11:35PM 37.9900 95.0691 84° East  Level Estimated
11:36PM 38.0044 95.2394 84° East  Level Estimated
11:37PM 38.0186 95.4098 84° East  Level Estimated
11:38PM 38.0325 95.5802 84° East  Level Estimated
11:39PM 38.0462 95.7507 84° East  Level Estimated
11:40PM 38.0596 95.9212 84° East  Level Estimated
11:41PM 38.0728 96.0919 84° East  Level Estimated
11:42PM 38.0858 96.2625 85° East  Level Estimated
11:43PM 38.0984 96.4333 85° East  Level Estimated
11:44PM 38.1109 96.6041 85° East  Level Estimated
11:45PM 38.1231 96.7749 85° East  Level Estimated
11:46PM 38.1350 96.9458 85° East  Level Estimated
11:47PM 38.1467 97.1168 85° East  Level Estimated
11:48PM 38.1582 97.2878 85° East  Level Estimated
11:49PM 38.1694 97.4589 85° East  Level Estimated
11:50PM 38.1803 97.6301 85° East  Level Estimated
11:51PM 38.1910 97.8012 86° East  Level Estimated
11:52PM 38.2015 97.9725 86° East  Level Estimated
11:53PM 38.2117 98.1438 86° East  Level Estimated
11:54PM 38.2217 98.3151 86° East  Level Estimated
11:55PM 38.2314 98.4865 86° East  Level Estimated
11:56PM 38.2408 98.6579 86° East  Level Estimated
11:57PM 38.2500 98.8293 86° East  Level Estimated
11:58PM 38.2590 99.0008 86° East  Level Estimated
11:59PM 38.2677 99.1724 86° East  Level Estimated
12:00AM 38.2762 99.3440 86° East  Level Estimated
12:01AM 38.2844 99.5156 87° East  Level Estimated
12:02AM 38.2923 99.6873 87° East  Level Estimated
12:03AM 38.3000 99.8590 87° East  Level Estimated
12:04AM 38.3075 100.0307 87° East  Level Estimated
12:05AM 38.3147 100.2025 87° East  Level Estimated
12:06AM 38.3217 100.3743 87° East  Level Estimated
12:07AM 38.3284 100.5461 87° East  Level Estimated
12:08AM 38.3349 100.7180 87° East  Level Estimated
12:09AM 38.3411 100.8899 87° East  Level Estimated
12:10AM 38.3470 101.0618 88° East  Level Estimated
12:11AM 38.3527 101.2338 88° East  Level Estimated
12:12AM 38.3582 101.4058 88° East  Level Estimated
12:13AM 38.3634 101.5778 88° East  Level Estimated
12:14AM 38.3684 101.7498 88° East  Level Estimated
12:15AM 38.3731 101.9219 88° East  Level Estimated
12:16AM 38.3775 102.0939 88° East  Level Estimated
12:17AM 38.3817 102.2660 88° East  Level Estimated
12:18AM 38.3857 102.4381 88° East  Level Estimated
12:19AM 38.3894 102.6103 88° East  Level Estimated
12:20AM 38.3928 102.7824 89° East  Level Estimated
12:21AM 38.3960 102.9546 89° East  Level Estimated
12:22AM 38.3989 103.1268 89° East  Level Estimated
12:23AM 38.4016 103.2990 89° East  Level Estimated
12:24AM 38.4040 103.4712 89° East  Level Estimated
12:25AM 38.4062 103.6434 89° East  Level Estimated
12:26AM 38.4082 103.8156 89° East  Level Estimated
12:27AM 38.4098 103.9879 89° East  Level Estimated
12:28AM 38.4113 104.1601 89° East  Level Estimated
12:29AM 38.4124 104.3324 90° East  Level Estimated
12:30AM 38.4134 104.5046 90° East  Level Estimated
12:31AM 38.4140 104.6769 90° East  Level Estimated
12:32AM 38.4145 104.8491 90° East  Level Estimated
12:33AM 38.4146 105.0214 90° East  Level Estimated
12:34AM 38.4146 105.1937 90° East  Level Estimated
12:35AM 38.4142 105.3659 90° East  Level Estimated
12:36AM 38.4136 105.5382 90° East  Level Estimated
12:37AM 38.4128 105.7104 90° East  Level Estimated
12:38AM 38.4117 105.8827 91° East  Level Estimated
12:39AM 38.4103 106.0549 91° East  Level Estimated
12:40AM 38.4087 106.2272 91° East  Level Estimated
12:41AM 38.4069 106.3994 91° East  Level Estimated
12:42AM 38.4048 106.5716 91° East  Level Estimated
12:43AM 38.4024 106.7438 91° East  Level Estimated
12:44AM 38.3998 106.9160 91° East  Level Estimated
12:45AM 38.3970 107.0882 91° East  Level Estimated
12:46AM 38.3939 107.2604 91° East  Level Estimated
12:47AM 38.3905 107.4325 91° East  Level Estimated
12:48AM 38.3869 107.6047 92° East  Level Estimated
12:49AM 38.3830 107.7768 92° East  Level Estimated
12:50AM 38.3789 107.9489 92° East  Level Estimated
12:51AM 38.3745 108.1210 92° East  Level Estimated
12:52AM 38.3699 108.2931 92° East  Level Estimated
12:53AM 38.3651 108.4651 92° East  Level Estimated
12:54AM 38.3599 108.6371 92° East  Level Estimated
12:55AM 38.3545 108.8091 92° East  Level Estimated
12:56AM 38.3489 108.9811 92° East  Level Estimated
12:57AM 38.3430 109.1530 93° East  Level Estimated
12:58AM 38.3369 109.3249 93° East  Level Estimated
12:59AM 38.3305 109.4968 93° East  Level Estimated
01:00AM 38.3239 109.6687 93° East  Level Estimated
01:01AM 38.3170 109.8405 93° East  Level Estimated
01:02AM 38.3099 110.0123 93° East  Level Estimated
01:03AM 38.3025 110.1840 93° East  Level Estimated
01:04AM 38.2949 110.3557 93° East  Level Estimated
01:05AM 38.2870 110.5274 93° East  Level Estimated
01:06AM 38.2789 110.6990 94° East  Level Estimated
01:07AM 38.2705 110.8706 94° East  Level Estimated
01:08AM 38.2619 111.0422 94° East  Level Estimated
01:09AM 38.2530 111.2137 94° East  Level Estimated
01:10AM 38.2439 111.3852 94° East  Level Estimated
01:11AM 38.2345 111.5566 94° East  Level Estimated
01:12AM 38.2248 111.7280 94° East  Level Estimated
01:13AM 38.2150 111.8994 94° East  Level Estimated
01:14AM 38.2048 112.0706 94° East  Level Estimated
01:15AM 38.1945 112.2419 94° East  Level Estimated
01:16AM 38.1838 112.4131 95° East  Level Estimated
01:17AM 38.1730 112.5842 95° East  Level Estimated
01:18AM 38.1619 112.7553 95° East  Level Estimated
01:19AM 38.1505 112.9264 95° East  Level Estimated
01:20AM 38.1389 113.0974 95° East  Level Estimated
01:21AM 38.1270 113.2683 95° East  Level Estimated
01:22AM 38.1149 113.4392 95° East  Level Estimated
01:23AM 38.1025 113.6100 95° East  Level Estimated
01:24AM 38.0899 113.7807 95° East  Level Estimated
01:25AM 38.0771 113.9514 96° East  Level Estimated
01:26AM 38.0640 114.1221 96° East  Level Estimated
01:27AM 38.0506 114.2927 96° East  Level Estimated
01:28AM 38.0370 114.4632 96° East  Level Estimated
01:29AM 38.0232 114.6336 96° East  Level Estimated
01:30AM 38.0091 114.8040 96° East  Level Estimated
01:31AM 37.9948 114.9743 96° East  Level Estimated
01:32AM 37.9802 115.1446 96° East  Level Estimated
01:33AM 37.9654 115.3148 96° East  Level Estimated
01:34AM 37.9503 115.4849 96° East  Level Estimated
01:35AM 37.9350 115.6550 97° East  Level Estimated
01:36AM 37.9194 115.8249 97° East  Level Estimated
01:37AM 37.9036 115.9949 97° East  Level Estimated
01:38AM 37.8876 116.1647 97° East  Level Estimated
01:39AM 37.8713 116.3344 97° East  Level Estimated
01:40AM 37.8548 116.5041 97° East  Level Estimated
01:41AM 37.8380 116.6737 97° East  Level Estimated
01:42AM 37.8210 116.8432 97° East  Level Estimated
01:43AM 37.8037 117.0127 97° East  Level Estimated
01:44AM 37.7862 117.1821 98° East  Level Estimated
01:45AM 37.7684 117.3513 98° East  Level Estimated
01:46AM 37.7505 117.5206 98° East  Level Estimated
01:47AM 37.7322 117.6897 98° East  Level Estimated
01:48AM 37.7137 117.8587 98° East  Level Estimated
01:49AM 37.6950 118.0277 98° East  Level Estimated
01:50AM 37.6761 118.1965 98° East  Level Estimated
01:51AM 37.6569 118.3653 98° East  Level Estimated
01:52AM 37.6375 118.5340 98° East  Level Estimated
01:53AM 37.6178 118.7026 98° East  Level Estimated
01:54AM 37.5979 118.8711 99° East  Level Estimated
01:55AM 37.5777 119.0395 99° East  Level Estimated
01:56AM 37.5573 119.2079 99° East  Level Estimated
01:57AM 37.5367 119.3761 99° East  Level Estimated
01:58AM 37.5158 119.5442 99° East  Level Estimated
01:59AM 37.4947 119.7123 99° East  Level Estimated
02:00AM 37.4734 119.8802 99° East  Level Estimated
02:01AM 37.4518 120.0481 99° East  Level Estimated
02:02AM 37.4300 120.2159 99° East  Level Estimated
02:03AM 37.4079 120.3835 99° East  Level Estimated
02:04AM 37.3856 120.5511 100° East  Level Estimated
02:05AM 37.3631 120.7186 100° East  Level Estimated
02:06AM 37.3403 120.8859 100° East  Level Estimated
02:07AM 37.3173 121.0532 100° East  Level Estimated
02:08AM 37.2940 121.2203 100° East  Level Estimated
02:09AM 37.2706 121.3874 100° East  Level Estimated
02:10AM 37.2469 121.5543 100° East  Level Estimated
02:11AM 37.2229 121.7212 100° East  Level Estimated
02:12AM 37.1987 121.8879 100° East  Level Estimated
02:13AM 37.1743 122.0545 100° East  Level Estimated
02:14AM 37.1497 122.2211 101° East  Level Estimated
02:15AM 37.1248 122.3875 101° East  Level Estimated
02:16AM 37.0997 122.5538 101° East  Level Estimated
02:17AM 37.0744 122.7200 101° East  Level Estimated
02:18AM 37.0488 122.8860 101° East  Level Estimated
02:19AM 37.0230 123.0520 101° East  Level Estimated
02:20AM 36.9970 123.2179 101° East  Level Estimated
02:21AM 36.9707 123.3836 101° East  Level Estimated
02:22AM 36.9442 123.5492 101° East  Level Estimated
02:23AM 36.9175 123.7147 101° East  Level Estimated
02:24AM 36.8905 123.8801 102° East  Level Estimated
02:25AM 36.8633 124.0454 102° East  Level Estimated
02:26AM 36.8359 124.2106 102° East  Level Estimated
02:27AM 36.8083 124.3756 102° East  Level Estimated
02:28AM 36.7804 124.5405 102° East  Level Estimated
02:29AM 36.7523 124.7053 102° East  Level Estimated
02:30AM 36.7240 124.8700 102° East  Level Estimated
02:31AM 36.6954 125.0346 102° East  Level Estimated
02:32AM 36.6667 125.1990 102° East  Level Estimated
02:33AM 36.6377 125.3633 102° East  Level Estimated
02:34AM 36.6084 125.5275 103° East  Level Estimated
02:35AM 36.5790 125.6916 103° East  Level Estimated
02:36AM 36.5493 125.8555 103° East  Level Estimated
02:37AM 36.5194 126.0193 103° East  Level Estimated
02:38AM 36.4893 126.1830 103° East  Level Estimated
02:39AM 36.4589 126.3465 103° East  Level Estimated
02:40AM 36.4284 126.5100 103° East  Level Estimated
02:41AM 36.3976 126.6733 103° East  Level Estimated
02:42AM 36.3666 126.8364 103° East  Level Estimated
02:43AM 36.3353 126.9995 103° East  Level Estimated
02:44AM 36.3039 127.1624 104° East  Level Estimated
02:45AM 36.2722 127.3252 104° East  Level Estimated
02:46AM 36.2403 127.4878 104° East  Level Estimated
02:47AM 36.2082 127.6503 104° East  Level Estimated
02:48AM 36.1758 127.8127 104° East  Level Estimated
02:49AM 36.1433 127.9749 104° East  Level Estimated
02:50AM 36.1105 128.1370 104° East  Level Estimated
02:51AM 36.0775 128.2990 104° East  Level Estimated
02:52AM 36.0443 128.4608 104° East  Level Estimated
02:53AM 36.0108 128.6225 104° East  Level Estimated
02:54AM 35.9772 128.7841 104° East  Level Estimated
02:55AM 35.9433 128.9455 105° East  Level Estimated
02:56AM 35.9093 129.1068 105° East  Level Estimated
02:57AM 35.8750 129.2679 105° East  Level Estimated
02:58AM 35.8405 129.4290 105° East  Level Estimated
02:59AM 35.8057 129.5898 105° East  Level Estimated
03:00AM 35.7708 129.7505 105° East  Level Estimated
03:01AM 35.7356 129.9111 105° East  Level Estimated
03:02AM 35.7003 130.0715 105° East  Level Estimated
03:03AM 35.6647 130.2318 105° East  Level Estimated
03:04AM 35.6289 130.3920 105° East  Level Estimated
03:05AM 35.5929 130.5520 106° East  Level Estimated
03:06AM 35.5567 130.7119 106° East  Level Estimated
03:07AM 35.5203 130.8716 106° East  Level Estimated
03:08AM 35.4836 131.0311 106° East  Level Estimated
03:09AM 35.4468 131.1906 106° East  Level Estimated
03:10AM 35.4097 131.3499 106° East  Level Estimated
03:11AM 35.3725 131.5090 106° East  Level Estimated
03:12AM 35.3350 131.6680 106° East  Level Estimated
03:13AM 35.2973 131.8268 106° East  Level Estimated
03:14AM 35.2594 131.9855 106° East  Level Estimated
03:15AM 35.2213 132.1440 106° East  Level Estimated
03:16AM 35.1830 132.3024 107° East  Level Estimated
03:17AM 35.1445 132.4607 107° East  Level Estimated
03:18AM 35.1058 132.6188 107° East  Level Estimated
03:19AM 35.0669 132.7767 107° East  Level Estimated
03:20AM 35.0278 132.9345 107° East  Level Estimated
03:21AM 34.9884 133.0922 107° East  Level Estimated
03:22AM 34.9489 133.2496 107° East  Level Estimated
03:23AM 34.9092 133.4070 107° East  Level Estimated
03:24AM 34.8693 133.5642 107° East  Level Estimated
03:25AM 34.8291 133.7212 107° East  Level Estimated
03:26AM 34.7888 133.8781 107° East  Level Estimated
03:27AM 34.7482 134.0348 108° East  Level Estimated
03:28AM 34.7075 134.1914 108° East  Level Estimated
03:29AM 34.6666 134.3478 108° East  Level Estimated
03:30AM 34.6254 134.5040 108° East  Level Estimated
03:31AM 34.5841 134.6602 108° East  Level Estimated
03:32AM 34.5425 134.8161 108° East  Level Estimated
03:33AM 34.5008 134.9719 108° East  Level Estimated
03:34AM 34.4589 135.1275 108° East  Level Estimated
03:35AM 34.4167 135.2830 288° West  Level Estimated
03:36AM 34.4589 135.1275 108° East  Level Estimated
03:37AM 34.4167 135.2830 288° West  Level Estimated
03:38AM 34.4589 135.1275 108° East  Level Estimated
03:39AM 34.4167 135.2830 288° West  Level Estimated
03:40AM 34.4589 135.1275 108° East  Level Estimated
03:41AM 34.4167 135.2830 288° West  Level Estimated
03:42AM 34.4589 135.1275 108° East  Level Estimated
03:43AM 34.4167 135.2830 288° West  Level Estimated
03:44AM 34.4589 135.1275 108° East  Level Estimated
03:45AM 34.4167 135.2830 288° West  Level Estimated
03:46AM 34.4589 135.1275 108° East  Level Estimated
03:47AM 34.4167 135.2830 288° West  Level Estimated
03:48AM 34.4589 135.1275 108° East  Level Estimated
03:49AM 34.4167 135.2830 288° West  Level Estimated
03:50AM 34.4589 135.1275 288° West  Level Estimated